East Peoria, IL

5:57 AM CST on February 09, 2016 (GMT -0600)
Fondulac Heights | | Change Station
CLOSE
Current Station
Personal Weather Station
Location: East Peoria, IL
Elevation: 692 ft
Nearby Weather Stations

Elev 692 ft 40.69 °N, 89.53 °W | Updated 2 seconds ago

Snow
Snow
15.1 °F
Feels Like 4 °F
N
7.8
Wind Variable Wind from WNW
Gusts 13.0 mph

Today
High -- | Low -- °F
--% Chance of Precip.
Yesterday
High -- | Low -- °F
Precip. -- in
Pressure 29.91 in
Visibility 2.0 miles
Clouds Few 1700 ft
Overcast 2800 ft
Windchill 4 °F
Dew Point 10 °F
Humidity 81%
Rainfall 0.00 in
Snow Depth Not available.
7:00 AM 5:25 PM
New Moon, 1% visible
METAR KPIA 091154Z 32008G18KT 2SM -SN FEW017 OVC028 M09/M13 A2987 RMK AO2 SNB33 SLP126 P0000 60000 70001 T10941128 11078 21094 53013
Pressure 29.91 in
Visibility 2.0 miles
Clouds Few 1700 ft
Overcast 2800 ft
Windchill 4 °F
Dew Point 10 °F
Humidity 81%
Rainfall 0.00 in
Snow Depth Not available.
7:00 AM 5:25 PM
New Moon, 1% visible
METAR KPIA 091154Z 32008G18KT 2SM -SN FEW017 OVC028 M09/M13 A2987 RMK AO2 SNB33 SLP126 P0000 60000 70001 T10941128 11078 21094 53013

10-Day Weather Forecast

Almanac

Astronomy

Feb. 09, 2016 Rise Set
Actual Time
Civil Twilight
Nautical Twilight
Astronomical Twilight
Moon
Length of Visible Light
Length of Day
Tomorrow will be .
, % of the Moon is Illuminated

Today's Extremes

State Highs State Lows

Community

WunderPhotos

Upload Photos

1,891,565 photos uploaded!

WunderBlog® & News

Nearby

Air Quality

  Air Quality AQ Index Pollutant
Not available.

Snow Depth

Station Depth Elevation

Earthquake Activity

City Distance Mag. Time & Date
Minimum magnitude displayed is 2.5.

Coastal Water Temperatures

Place Temperature

Stations

Nearby Weather Stations

Station Location Temp. Windchill Dew Point Humidity Wind Precip. Elev Updated Type
                   

Watches & Warnings

There are currently no watches in effect.